Time;durP1;ratioP1;P1;durP2;ratioP2;P2;SDS_P1;SDS_P2;PMS_P1;PMS_P2;Temp;Humidity;BMP_temperature;BMP_pressure;BME280_temperature;BME280_humidity;BME280_pressure;Samples;Min_cycle;Max_cycle;Signal;HPM_P1;HPM_P2
2022/04/27 00:02:14;;;;;;;7.35;4.30;;;;;;;6.03;89.76;101520.69;4971862;28;20156;-83
2022/04/27 00:04:41;;;;;;;8.13;4.57;;;;;;;6.00;90.17;101520.63;5002179;28;20088;-84
2022/04/27 00:07:11;;;;;;;11.02;4.25;;;;;;;5.98;90.55;101524.91;4985778;28;20124;-83
2022/04/27 00:09:47;;;;;;;4.97;4.28;;;;;;;5.94;90.86;101523.94;5004171;28;20056;-82
2022/04/27 00:12:17;;;;;;;9.40;4.65;;;;;;;5.94;90.94;101520.44;5033448;28;20042;-82
2022/04/27 00:14:47;;;;;;;8.13;5.50;;;;;;;5.90;91.35;101522.06;4992235;28;20064;-83
2022/04/27 00:17:25;;;;;;;6.82;4.63;;;;;;;5.87;91.18;101528.94;5007764;28;20392;-82
2022/04/27 00:19:58;;;;;;;7.63;4.47;;;;;;;5.84;91.53;101528.84;4989122;28;20818;-82
2022/04/27 00:22:32;;;;;;;7.30;4.40;;;;;;;5.79;91.72;101523.56;4991183;28;20049;-82
2022/04/27 00:25:04;;;;;;;6.45;4.25;;;;;;;5.75;91.99;101521.69;4988758;28;20029;-83
2022/04/27 00:27:35;;;;;;;8.20;4.18;;;;;;;5.72;92.46;101527.72;4989687;28;20073;-82
2022/04/27 00:30:07;;;;;;;9.60;5.00;;;;;;;5.71;93.11;101522.47;4987724;28;20041;-83
2022/04/27 00:32:37;;;;;;;8.65;4.32;;;;;;;5.67;92.67;101520.63;5005874;28;20034;-84
2022/04/27 00:35:19;;;;;;;;;;;;;;;;;;;;;
2022/04/27 00:37:49;;;;;;;7.85;4.32;;;;;;;5.64;93.95;101524.03;4995097;28;20092;-83
2022/04/27 00:40:20;;;;;;;5.65;4.22;;;;;;;5.60;93.83;101519.59;5022621;28;20045;-82
2022/04/27 00:42:50;;;;;;;16.98;4.75;;;;;;;5.58;94.32;101529.97;5032656;28;20065;-82
2022/04/27 00:45:21;;;;;;;9.10;4.53;;;;;;;5.54;94.44;101530.72;5003225;28;20269;-83
2022/04/27 00:47:54;;;;;;;6.90;5.28;;;;;;;5.52;94.74;101526.34;5019037;28;20056;-83
2022/04/27 00:50:29;;;;;;;9.35;4.65;;;;;;;5.50;95.06;101528.00;5018229;28;20049;-84
2022/04/27 00:52:56;;;;;;;6.35;4.32;;;;;;;5.50;95.41;101528.91;4998323;28;20303;-84
2022/04/27 00:55:33;;;;;;;9.20;5.97;;;;;;;5.47;95.51;101529.69;4992518;28;20058;-82
2022/04/27 00:58:29;;;;;;;5.78;4.30;;;;;;;5.44;95.66;101529.59;4990985;28;20049;-82
2022/04/27 01:00:58;;;;;;;7.53;4.63;;;;;;;5.42;95.72;101530.38;5001439;28;20108;-83
2022/04/27 01:03:28;;;;;;;5.95;5.28;;;;;;;5.41;95.81;101529.53;4991444;28;20342;-83
2022/04/27 01:05:57;;;;;;;7.50;4.55;;;;;;;5.38;96.20;101532.03;5019684;28;20058;-82
2022/04/27 01:08:29;;;;;;;9.70;4.43;;;;;;;5.35;96.03;101538.88;5020222;28;20048;-83
2022/04/27 01:11:02;;;;;;;10.15;5.18;;;;;;;5.32;96.46;101529.28;5002399;28;20081;-82
2022/04/27 01:13:29;;;;;;;7.38;4.47;;;;;;;5.30;96.64;101530.94;5001988;28;20053;-82
2022/04/27 01:16:01;;;;;;;8.73;4.40;;;;;;;5.29;97.03;101535.28;5009613;28;20033;-83
2022/04/27 01:18:31;;;;;;;6.40;4.50;;;;;;;5.27;96.84;101533.47;4990117;28;20050;-82
2022/04/27 01:21:07;;;;;;;4.80;4.20;;;;;;;5.21;96.74;101531.56;4985371;28;20029;-83
2022/04/27 01:23:52;;;;;;;8.02;5.47;;;;;;;5.18;97.20;101536.69;5001591;28;20343;-84
2022/04/27 01:26:28;;;;;;;8.35;4.35;;;;;;;5.16;97.73;101540.06;5005407;28;20052;-82
2022/04/27 01:29:00;;;;;;;5.32;4.57;;;;;;;5.13;98.29;101540.88;5007246;28;20144;-82
2022/04/27 01:31:30;;;;;;;7.32;5.10;;;;;;;5.12;98.04;101547.78;5005921;28;20094;-82
2022/04/27 01:33:57;;;;;;;11.93;5.38;;;;;;;5.12;98.42;101550.38;5020506;28;20060;-83
2022/04/27 01:36:39;;;;;;;11.13;5.28;;;;;;;5.10;97.88;101546.84;5019535;28;20029;-82
2022/04/27 01:39:11;;;;;;;8.13;4.68;;;;;;;5.05;98.17;101551.03;5006911;28;20049;-83
2022/04/27 01:41:39;;;;;;;12.60;5.38;;;;;;;5.04;98.88;101561.38;5014829;28;20510;-83
2022/04/27 01:44:06;;;;;;;8.93;4.78;;;;;;;5.03;98.84;101568.31;4989862;28;20057;-82
2022/04/27 01:46:39;;;;;;;9.77;5.45;;;;;;;4.99;98.95;101571.63;4992206;28;20038;-81
2022/04/27 01:49:09;;;;;;;6.57;4.20;;;;;;;4.95;99.12;101573.25;5011840;28;20048;-84
2022/04/27 01:54:28;;;;;;;9.73;4.95;;;;;;;4.89;99.64;101570.47;4992614;28;20057;-83
2022/04/27 01:57:03;;;;;;;4.70;4.00;;;;;;;4.86;99.81;101578.16;4995100;28;20045;-84
2022/04/27 01:59:30;;;;;;;6.55;4.68;;;;;;;4.84;100.00;101576.34;5009658;28;20049;-82
2022/04/27 02:02:08;;;;;;;9.43;6.35;;;;;;;4.80;100.00;101581.47;5017082;28;20054;-82
2022/04/27 02:04:43;;;;;;;8.75;5.18;;;;;;;4.77;100.00;101588.28;4989454;28;20096;-84
2022/04/27 02:07:19;;;;;;;11.10;6.45;;;;;;;4.73;100.00;101584.72;4997359;28;20042;-82
2022/04/27 02:09:48;;;;;;;9.75;5.50;;;;;;;4.69;100.00;101593.22;4990461;28;20129;-83
2022/04/27 02:12:16;;;;;;;10.55;5.95;;;;;;;4.63;100.00;101593.06;5022963;28;20041;-81
2022/04/27 02:14:43;;;;;;;7.68;5.00;;;;;;;4.60;100.00;101587.75;5014006;28;20038;-84
2022/04/27 02:17:13;;;;;;;6.30;5.43;;;;;;;4.58;100.00;101590.31;4992432;28;20038;-81
2022/04/27 02:19:43;;;;;;;8.45;5.15;;;;;;;4.56;100.00;101598.88;5004854;28;20129;-82
2022/04/27 02:22:10;;;;;;;6.38;4.70;;;;;;;4.55;100.00;101602.28;5002677;28;20053;-82
2022/04/27 02:24:40;;;;;;;7.70;4.40;;;;;;;4.51;100.00;101597.84;5022446;28;20049;-81
2022/04/27 02:27:17;;;;;;;7.63;5.35;;;;;;;4.46;100.00;101593.41;5004942;28;20048;-82
2022/04/27 02:29:48;;;;;;;8.70;6.38;;;;;;;4.44;100.00;101600.25;5006033;28;20042;-81
2022/04/27 02:32:32;;;;;;;11.10;5.53;;;;;;;4.44;100.00;101594.19;4990304;28;20068;-83
2022/04/27 02:35:18;;;;;;;7.00;4.72;;;;;;;4.42;100.00;101598.44;4991995;28;20046;-82
2022/04/27 02:37:48;;;;;;;9.25;5.38;;;;;;;4.40;100.00;101598.38;5004396;28;20121;-82
2022/04/27 02:40:24;;;;;;;10.68;5.47;;;;;;;4.39;100.00;101600.94;4992864;28;20045;-83
2022/04/27 02:42:58;;;;;;;10.45;6.20;;;;;;;4.37;100.00;101605.19;5020859;28;20046;-83
2022/04/27 02:45:32;;;;;;;6.75;5.57;;;;;;;4.34;100.00;101605.09;4987772;28;20079;-83
2022/04/27 02:48:06;;;;;;;7.85;4.88;;;;;;;4.31;100.00;101605.88;5038657;28;20047;-83
2022/04/27 02:53:42;;;;;;;14.23;5.55;;;;;;;4.25;100.00;101616.94;5008462;28;20055;-83
2022/04/27 02:56:28;;;;;;;11.27;5.32;;;;;;;4.21;100.00;101620.28;5019475;28;20054;-83
2022/04/27 02:58:55;;;;;;;9.13;5.35;;;;;;;4.20;100.00;101609.81;5020176;28;20540;-83
2022/04/27 03:01:28;;;;;;;10.70;5.00;;;;;;;4.19;100.00;101613.28;4997387;28;20045;-84
2022/04/27 03:03:57;;;;;;;16.77;6.25;;;;;;;4.18;100.00;101612.38;5004045;28;20049;-84
2022/04/27 03:06:27;;;;;;;8.65;5.97;;;;;;;4.17;100.00;101617.50;4992586;28;20111;-83
2022/04/27 03:09:00;;;;;;;12.95;6.07;;;;;;;4.13;100.00;101622.59;4988933;28;20038;-83
2022/04/27 03:11:30;;;;;;;7.97;5.55;;;;;;;4.11;100.00;101624.25;5019389;28;20046;-83
2022/04/27 03:14:00;;;;;;;8.43;6.20;;;;;;;4.11;100.00;101621.66;5025926;28;20097;-83
2022/04/27 03:16:27;;;;;;;12.27;6.85;;;;;;;4.10;100.00;101634.56;4999707;28;20052;-82
2022/04/27 03:18:57;;;;;;;10.85;7.25;;;;;;;4.05;100.00;101629.22;5018699;28;20523;-83
2022/04/27 03:21:26;;;;;;;16.00;7.13;;;;;;;4.01;100.00;101629.94;4998446;28;20106;-82
2022/04/27 03:23:59;;;;;;;11.57;7.25;;;;;;;3.98;100.00;101635.03;4986988;28;20077;-83
2022/04/27 03:26:31;;;;;;;13.68;7.97;;;;;;;3.93;100.00;101637.47;4999567;28;20043;-83
2022/04/27 03:29:01;;;;;;;11.25;7.10;;;;;;;3.89;100.00;101642.50;5005096;28;20068;-81
2022/04/27 03:31:28;;;;;;;17.17;8.40;;;;;;;3.84;100.00;101636.28;4990033;28;20046;-83
2022/04/27 03:33:54;;;;;;;9.55;8.25;;;;;;;3.78;100.00;101640.41;4999549;28;20118;-82
2022/04/27 03:36:21;;;;;;;10.88;7.32;;;;;;;3.76;100.00;101647.25;5003608;28;20115;-82
2022/04/27 03:38:53;;;;;;;10.73;7.07;;;;;;;3.74;100.00;101648.03;5018574;28;20037;-82
2022/04/27 03:41:22;;;;;;;14.48;7.72;;;;;;;3.71;100.00;101648.78;5013269;28;20041;-82
2022/04/27 03:43:58;;;;;;;9.07;6.88;;;;;;;3.70;100.00;101654.78;4990003;28;20344;-82
2022/04/27 03:46:37;;;;;;;11.05;7.50;;;;;;;3.67;100.00;101665.06;5009175;28;20056;-82
2022/04/27 03:49:08;;;;;;;8.10;6.97;;;;;;;3.67;100.00;101661.59;5006079;28;20056;-82
2022/04/27 03:51:35;;;;;;;10.73;6.78;;;;;;;3.67;100.00;101662.47;4989435;28;20057;-83
2022/04/27 03:54:08;;;;;;;12.63;6.85;;;;;;;3.66;100.00;101665.88;5032776;28;20409;-83
2022/04/27 03:56:38;;;;;;;17.50;8.55;;;;;;;3.66;100.00;101668.47;5000561;28;20068;-83
2022/04/27 03:59:07;;;;;;;15.02;6.72;;;;;;;3.63;100.00;101669.22;5000423;28;20046;-83
2022/04/27 04:01:33;;;;;;;13.93;8.50;;;;;;;3.61;100.00;101673.50;4980947;28;20050;-82
2022/04/27 04:04:04;;;;;;;24.92;8.95;;;;;;;3.63;100.00;101673.53;4995494;28;20291;-83
2022/04/27 04:06:33;;;;;;;14.27;8.43;;;;;;;3.62;100.00;101682.13;5003915;28;20072;-82
2022/04/27 04:09:00;;;;;;;18.40;8.75;;;;;;;3.60;100.00;101683.81;4995809;28;20030;-83
2022/04/27 04:11:27;;;;;;;19.30;8.88;;;;;;;3.57;100.00;101684.56;4993940;28;20408;-83
2022/04/27 04:13:54;;;;;;;14.77;9.68;;;;;;;3.56;100.00;101687.97;4978875;28;20046;-83
2022/04/27 04:16:21;;;;;;;23.10;10.00;;;;;;;3.57;100.00;101687.16;4998624;28;20046;-82
2022/04/27 04:18:50;;;;;;;16.38;9.60;;;;;;;3.59;100.00;101692.38;5008651;28;20124;-83
2022/04/27 04:21:28;;;;;;;21.60;9.68;;;;;;;3.58;100.00;101696.66;5005596;28;20503;-82
2022/04/27 04:23:55;;;;;;;19.58;10.25;;;;;;;3.59;100.00;101694.97;4986222;28;20057;-83
2022/04/27 04:29:14;;;;;;;22.55;10.13;;;;;;;3.59;100.00;101711.38;4999433;28;20045;-83
2022/04/27 04:31:41;;;;;;;21.50;11.80;;;;;;;3.61;100.00;101709.75;5011023;28;20149;-82
2022/04/27 04:34:08;;;;;;;18.58;11.23;;;;;;;3.66;100.00;101712.47;4997669;28;20119;-82
2022/04/27 04:36:35;;;;;;;22.02;10.93;;;;;;;3.68;100.00;101704.75;4999970;28;20539;-82
2022/04/27 04:39:01;;;;;;;20.38;10.18;;;;;;;3.73;100.00;101713.59;5015998;28;20042;-82
2022/04/27 04:41:34;;;;;;;12.05;8.98;;;;;;;3.75;100.00;101715.41;4979367;28;20042;-83
2022/04/27 04:44:00;;;;;;;15.65;9.85;;;;;;;3.77;100.00;101716.34;4999685;28;20103;-83
2022/04/27 04:46:33;;;;;;;12.52;9.15;;;;;;;3.79;100.00;101711.22;4997569;28;20050;-83
2022/04/27 04:49:10;;;;;;;19.17;8.00;;;;;;;3.80;100.00;101716.44;4998580;28;20199;-83
2022/04/27 04:51:45;;;;;;;12.85;8.45;;;;;;;3.84;100.00;101716.59;4982160;28;20065;-83
2022/04/27 04:54:17;;;;;;;14.68;9.13;;;;;;;3.88;100.00;101729.69;4990221;28;20049;-83
2022/04/27 04:56:49;;;;;;;16.25;8.63;;;;;;;3.94;100.00;101737.69;5016397;28;20042;-83
2022/04/27 04:59:18;;;;;;;22.63;9.60;;;;;;;3.99;100.00;101735.25;5021673;28;20038;-82
2022/04/27 05:01:45;;;;;;;19.88;9.82;;;;;;;4.02;100.00;101734.50;4986091;28;20054;-82
2022/04/27 05:04:15;;;;;;;20.00;9.85;;;;;;;4.05;100.00;101743.22;5004957;28;20050;-83
2022/04/27 05:06:47;;;;;;;17.40;10.10;;;;;;;4.07;100.00;101751.09;5004198;28;20091;-83
2022/04/27 05:09:13;;;;;;;27.38;13.90;;;;;;;4.10;100.00;101748.59;4999700;28;20050;-82
2022/04/27 05:11:44;;;;;;;28.98;14.32;;;;;;;4.13;100.00;101759.06;5003036;28;20077;-83
2022/04/27 05:14:13;;;;;;;32.25;15.07;;;;;;;4.17;100.00;101752.28;4999523;28;20049;-83
2022/04/27 05:16:44;;;;;;;25.25;13.68;;;;;;;4.19;100.00;101761.00;5016792;28;20266;-82
2022/04/27 05:19:11;;;;;;;22.83;13.13;;;;;;;4.22;100.00;101758.50;4984891;28;20053;-83
2022/04/27 05:21:40;;;;;;;30.27;13.52;;;;;;;4.29;100.00;101760.50;4986120;28;20438;-82
2022/04/27 05:24:08;;;;;;;29.58;15.27;;;;;;;4.33;100.00;101756.28;5020196;28;20063;-83
2022/04/27 05:26:35;;;;;;;41.70;21.50;;;;;;;4.37;100.00;101760.72;4975066;28;20148;-83
2022/04/27 05:32:03;;;;;;;41.95;18.75;;;;;;;4.46;100.00;101758.47;5017781;28;20372;-83
2022/04/27 05:34:33;;;;;;;41.65;18.67;;;;;;;4.53;100.00;101775.13;5000030;28;20050;-83
2022/04/27 05:37:10;;;;;;;60.97;26.05;;;;;;;4.59;100.00;101776.19;5001334;28;20606;-84
2022/04/27 05:39:51;;;;;;;57.17;25.73;;;;;;;4.63;100.00;101775.47;4990465;28;20101;-83
2022/04/27 05:42:18;;;;;;;48.88;21.17;;;;;;;4.70;100.00;101779.16;5018301;28;20057;-82
2022/04/27 05:44:49;;;;;;;45.08;19.98;;;;;;;4.74;100.00;101783.59;5004896;28;20120;-83
2022/04/27 05:47:26;;;;;;;36.05;17.17;;;;;;;4.82;100.00;101783.00;4993543;28;20050;-83
2022/04/27 05:49:53;;;;;;;28.08;13.63;;;;;;;4.89;100.00;101784.94;4992174;28;20052;-83
2022/04/27 05:52:20;;;;;;;18.50;11.85;;;;;;;4.93;100.00;101781.63;5006335;28;20034;-83
2022/04/27 05:55:08;;;;;;;;;;;;;;;;;;;;;
2022/04/27 05:57:38;;;;;;;17.67;10.45;;;;;;;5.12;100.00;101785.69;5009882;28;20260;-83
2022/04/27 06:00:08;;;;;;;18.45;10.05;;;;;;;5.21;100.00;101785.09;4987337;28;20112;-83
2022/04/27 06:02:35;;;;;;;17.45;8.68;;;;;;;5.32;100.00;101786.31;5002602;28;20107;-83
2022/04/27 06:05:12;;;;;;;16.88;10.23;;;;;;;5.41;100.00;101791.78;4985673;28;20081;-83
2022/04/27 06:07:45;;;;;;;11.98;7.97;;;;;;;5.50;100.00;101798.09;4996669;28;20025;-83
2022/04/27 06:10:13;;;;;;;17.10;8.40;;;;;;;5.55;99.43;101793.91;5000700;28;20431;-83
2022/04/27 06:13:03;;;;;;;14.57;8.38;;;;;;;5.59;99.01;101794.06;5001792;28;20045;-83
2022/04/27 06:15:49;;;;;;;12.95;8.23;;;;;;;5.70;98.95;101806.50;4989743;28;20046;-83
2022/04/27 06:18:20;;;;;;;16.73;8.82;;;;;;;5.80;98.41;101808.50;5005140;28;20041;-83
2022/04/27 06:20:56;;;;;;;13.30;8.88;;;;;;;5.86;97.93;101803.50;5021446;28;20038;-83
2022/04/27 06:23:24;;;;;;;16.15;9.18;;;;;;;5.97;97.81;101807.28;5017199;28;20109;-83
2022/04/27 06:26:05;;;;;;;11.50;8.60;;;;;;;6.07;97.47;101807.59;5004243;28;20072;-82
2022/04/27 06:28:54;;;;;;;9.50;7.80;;;;;;;6.15;96.40;101813.00;5036750;28;20046;-83
2022/04/27 06:31:24;;;;;;;14.45;8.63;;;;;;;6.21;96.45;101816.66;5018531;28;20046;-83
2022/04/27 06:33:55;;;;;;;13.80;8.88;;;;;;;6.29;95.06;101814.25;5019427;28;20046;-83
2022/04/27 06:36:26;;;;;;;12.68;7.70;;;;;;;6.37;94.50;101814.47;5002628;28;20068;-82
2022/04/27 06:38:58;;;;;;;10.98;9.40;;;;;;;6.41;94.51;101812.00;4987462;28;20029;-83
2022/04/27 06:41:34;;;;;;;15.48;8.48;;;;;;;6.53;93.93;101807.94;4983392;28;20041;-83
2022/04/27 06:44:03;;;;;;;16.33;9.77;;;;;;;6.67;93.28;101813.53;5002275;28;20080;-83
2022/04/27 06:46:33;;;;;;;18.80;8.45;;;;;;;6.81;92.29;101811.28;4970472;28;20591;-84
2022/04/27 06:49:04;;;;;;;16.00;8.25;;;;;;;6.92;91.23;101818.50;5002669;28;20160;-81
2022/04/27 06:51:35;;;;;;;15.32;7.38;;;;;;;7.04;90.77;101817.03;5004088;28;20048;-83
2022/04/27 06:54:06;;;;;;;12.45;8.18;;;;;;;7.22;90.16;101816.59;4985997;28;20424;-83
2022/04/27 06:56:42;;;;;;;8.57;7.63;;;;;;;7.54;88.67;101824.28;5018333;28;20101;-83
2022/04/27 06:59:12;;;;;;;12.52;8.07;;;;;;;7.98;86.67;101826.06;4987894;28;20065;-84
2022/04/27 07:01:42;;;;;;;11.85;6.97;;;;;;;8.49;83.98;101828.00;5002296;28;20046;-84
2022/04/27 07:04:11;;;;;;;11.45;7.18;;;;;;;9.06;80.91;101828.97;4985359;28;20103;-83
2022/04/27 07:06:47;;;;;;;14.00;7.65;;;;;;;9.64;78.28;101832.44;4986581;28;20059;-83
2022/04/27 07:09:14;;;;;;;8.50;6.50;;;;;;;10.11;75.51;101826.94;5003987;28;20081;-83
2022/04/27 07:11:41;;;;;;;10.27;6.90;;;;;;;10.39;74.00;101838.66;5017168;28;20046;-83
2022/04/27 07:14:10;;;;;;;13.60;7.32;;;;;;;10.71;72.54;101830.22;4977802;28;20056;-81
2022/04/27 07:16:37;;;;;;;9.57;6.60;;;;;;;11.13;71.48;101830.56;4990383;28;20072;-81
2022/04/27 07:19:10;;;;;;;10.00;7.30;;;;;;;11.52;69.39;101838.72;4972023;28;20046;-82
2022/04/27 07:21:42;;;;;;;8.00;6.22;;;;;;;11.58;67.37;101844.00;5000053;28;20041;-83
2022/04/27 07:24:10;;;;;;;8.52;7.10;;;;;;;11.78;68.21;101846.72;5033300;28;20038;-82
2022/04/27 07:26:42;;;;;;;10.57;6.95;;;;;;;12.22;65.63;101850.47;4985669;28;20045;-82
2022/04/27 07:29:12;;;;;;;14.25;6.90;;;;;;;12.52;63.55;101844.41;5005478;28;20054;-82
2022/04/27 07:31:39;;;;;;;10.20;6.28;;;;;;;12.74;63.84;101850.56;5002444;28;20140;-82
2022/04/27 07:34:06;;;;;;;12.57;7.38;;;;;;;12.98;62.90;101842.72;5002953;28;20053;-82
2022/04/27 07:36:33;;;;;;;7.97;6.35;;;;;;;13.16;60.43;101841.84;4998894;28;20041;-84
2022/04/27 07:39:00;;;;;;;9.38;6.03;;;;;;;13.52;60.80;101848.81;4999981;28;20057;-83
2022/04/27 07:41:27;;;;;;;7.18;6.05;;;;;;;13.89;58.40;101843.44;4962487;28;20046;-83
2022/04/27 07:43:53;;;;;;;9.13;6.15;;;;;;;14.22;56.64;101845.94;4986611;28;20064;-83
2022/04/27 07:46:20;;;;;;;8.38;6.40;;;;;;;14.42;56.29;101848.47;4994518;28;20079;-82
2022/04/27 07:48:56;;;;;;;9.02;5.95;;;;;;;14.76;55.20;101850.94;4992442;28;20806;-82
2022/04/27 07:51:27;;;;;;;11.73;7.30;;;;;;;15.22;53.44;101850.53;4991007;28;20049;-85
2022/04/27 07:53:58;;;;;;;8.75;6.20;;;;;;;15.62;52.22;101848.38;4993729;28;20161;-83
2022/04/27 07:56:25;;;;;;;9.50;6.03;;;;;;;15.76;50.71;101859.69;4975828;28;20112;-81
2022/04/27 07:58:57;;;;;;;10.65;5.88;;;;;;;15.85;51.26;101856.97;5005916;28;20129;-83
2022/04/27 08:01:24;;;;;;;9.45;5.70;;;;;;;16.14;50.64;101868.06;4983039;28;20049;-83
2022/04/27 08:03:50;;;;;;;5.55;4.95;;;;;;;16.52;49.46;101864.03;5002467;28;20056;-85
2022/04/27 08:06:18;;;;;;;6.82;5.80;;;;;;;16.81;48.85;101863.59;4987253;28;20126;-83
2022/04/27 08:08:44;;;;;;;6.68;5.55;;;;;;;17.19;47.93;101870.09;4991318;28;20144;-84
2022/04/27 08:11:13;;;;;;;7.60;5.15;;;;;;;17.43;46.81;101867.91;4986507;28;20056;-83
2022/04/27 08:13:40;;;;;;;13.68;5.97;;;;;;;17.70;45.98;101865.59;4971856;28;20116;-85
2022/04/27 08:16:10;;;;;;;7.38;5.43;;;;;;;18.05;45.24;101864.06;4984606;28;20037;-84
2022/04/27 08:18:37;;;;;;;6.93;5.80;;;;;;;18.42;44.26;101860.63;4987673;28;20052;-84
2022/04/27 08:21:18;;;;;;;7.35;5.90;;;;;;;18.72;43.20;101866.13;4986613;28;20046;-84
2022/04/27 08:23:49;;;;;;;8.23;5.45;;;;;;;19.06;42.46;101867.09;5000906;28;20080;-83
2022/04/27 08:26:16;;;;;;;6.80;4.55;;;;;;;19.42;41.51;101862.63;4984826;28;20050;-82
2022/04/27 08:28:44;;;;;;;8.15;4.55;;;;;;;19.73;40.71;101868.91;4971554;28;20054;-84
2022/04/27 08:31:14;;;;;;;5.15;4.65;;;;;;;19.82;39.84;101869.53;4970356;28;20053;-83
2022/04/27 08:33:42;;;;;;;7.88;5.22;;;;;;;19.94;40.17;101870.09;4973803;28;20069;-83
2022/04/27 08:36:09;;;;;;;6.40;5.80;;;;;;;20.27;38.82;101865.59;4978516;28;20156;-84
2022/04/27 08:38:37;;;;;;;8.07;5.13;;;;;;;20.49;38.41;101872.88;4973358;28;20053;-85
2022/04/27 08:41:04;;;;;;;5.72;5.05;;;;;;;20.15;37.99;101871.25;4973595;28;20041;-85
2022/04/27 08:43:30;;;;;;;8.43;5.32;;;;;;;20.16;37.80;101867.69;4971346;28;20049;-84
2022/04/27 08:46:04;;;;;;;6.05;5.43;;;;;;;20.19;37.44;101872.91;5018136;28;20103;-85
2022/04/27 08:48:31;;;;;;;9.18;5.20;;;;;;;20.47;36.82;101877.41;5023270;28;20714;-84
2022/04/27 08:50:58;;;;;;;7.43;5.97;;;;;;;20.85;36.03;101883.31;5003045;28;20046;-83
2022/04/27 08:53:27;;;;;;;6.82;5.22;;;;;;;20.96;36.19;101881.19;4987135;28;20050;-83
2022/04/27 08:55:55;;;;;;;8.20;5.78;;;;;;;21.26;35.30;101888.19;5000846;28;20042;-83
2022/04/27 08:58:23;;;;;;;10.60;5.55;;;;;;;21.50;35.23;101889.13;4984628;28;20450;-83
2022/04/27 09:00:50;;;;;;;9.30;6.70;;;;;;;21.66;34.27;101886.81;4998079;28;20050;-84
2022/04/27 09:03:37;;;;;;;7.18;5.15;;;;;;;21.56;33.70;101880.06;4986965;28;20053;-84
2022/04/27 09:06:10;;;;;;;7.60;4.47;;;;;;;21.74;34.06;101886.53;4989505;28;20052;-83
2022/04/27 09:08:46;;;;;;;5.55;5.00;;;;;;;22.13;33.62;101889.50;4976169;28;20052;-85
2022/04/27 09:11:21;;;;;;;7.43;5.10;;;;;;;22.19;33.09;101885.75;4987504;28;20067;-84
2022/04/27 09:13:55;;;;;;;7.00;5.10;;;;;;;22.42;33.05;101884.03;5002944;28;20045;-83
2022/04/27 09:16:26;;;;;;;7.55;4.60;;;;;;;22.83;32.29;101883.28;5005590;28;20057;-83
2022/04/27 09:21:59;;;;;;;6.00;5.15;;;;;;;23.89;30.46;101888.56;4987307;28;20125;-85
2022/04/27 09:24:29;;;;;;;;;;;;;;;24.17;30.02;101887.31;4986677;28;20448;-84
2022/04/27 09:27:02;;;;;;;6.07;4.50;;;;;;;24.60;29.47;101887.94;5003688;28;20231;-83
2022/04/27 09:29:28;;;;;;;6.68;4.60;;;;;;;25.13;29.67;101883.56;5006746;28;20050;-85
2022/04/27 09:31:58;;;;;;;8.15;5.03;;;;;;;25.40;27.98;101886.69;4998176;28;20042;-85
2022/04/27 09:34:29;;;;;;;7.55;4.47;;;;;;;25.51;28.31;101887.94;4989440;28;20056;-84
2022/04/27 09:37:04;;;;;;;6.65;4.93;;;;;;;25.24;28.41;101891.94;4984554;28;20543;-83
2022/04/27 09:39:31;;;;;;;5.07;4.57;;;;;;;25.30;28.57;101887.22;4984000;28;20052;-85
2022/04/27 09:42:13;;;;;;;7.13;5.05;;;;;;;25.70;27.64;101886.00;4970273;28;20046;-84
2022/04/27 09:44:41;;;;;;;8.48;5.90;;;;;;;26.26;27.59;101883.03;4988260;28;20042;-84
2022/04/27 09:47:12;;;;;;;7.13;4.15;;;;;;;26.68;26.35;101881.53;5002800;28;20053;-86
2022/04/27 09:49:43;;;;;;;6.40;4.20;;;;;;;26.49;25.90;101888.91;5001469;28;20069;-85
2022/04/27 09:52:14;;;;;;;5.25;4.75;;;;;;;26.20;26.25;101889.59;4981072;28;20044;-85
2022/04/27 09:54:44;;;;;;;5.20;3.78;;;;;;;26.29;26.28;101888.22;4973565;28;20139;-85
2022/04/27 09:57:16;;;;;;;9.77;4.85;;;;;;;26.67;26.03;101881.63;4973487;28;20042;-85
2022/04/27 09:59:44;;;;;;;5.32;3.72;;;;;;;26.88;25.56;101884.91;5006450;28;20596;-84
2022/04/27 10:02:26;;;;;;;5.22;3.03;;;;;;;27.19;24.36;101877.72;4978028;28;20046;-85
2022/04/27 10:04:53;;;;;;;3.10;2.80;;;;;;;27.22;24.29;101881.09;4991408;28;20162;-85
2022/04/27 10:07:22;;;;;;;3.95;3.05;;;;;;;27.26;24.36;101879.09;4987509;28;20065;-85
2022/04/27 10:09:49;;;;;;;3.92;3.33;;;;;;;27.50;23.77;101890.19;4990854;28;20081;-84
2022/04/27 10:12:16;;;;;;;4.65;3.70;;;;;;;27.40;23.44;101884.53;4972663;28;20434;-85
2022/04/27 10:14:44;;;;;;;7.25;3.38;;;;;;;27.48;23.72;101883.19;5005075;28;20121;-84
2022/04/27 10:17:15;;;;;;;4.32;2.88;;;;;;;27.88;23.23;101878.88;5018885;28;20054;-84
2022/04/27 10:19:49;;;;;;;2.85;2.63;;;;;;;27.86;23.15;101885.31;4986827;28;20176;-85
2022/04/27 10:22:31;;;;;;;2.80;2.58;;;;;;;27.80;23.25;101875.81;4975472;28;20037;-83
2022/04/27 10:25:06;;;;;;;5.00;3.40;;;;;;;28.13;22.78;101879.19;5002968;28;20136;-83
2022/04/27 10:27:42;;;;;;;6.00;3.63;;;;;;;27.43;23.42;101883.47;4975515;28;20054;-83
2022/04/27 10:30:13;;;;;;;6.90;3.30;;;;;;;27.58;23.60;101878.97;4970108;28;20420;-83
2022/04/27 10:32:48;;;;;;;6.38;3.92;;;;;;;27.21;23.71;101870.44;4992186;28;20057;-83
2022/04/27 10:35:17;;;;;;;5.35;3.20;;;;;;;27.45;23.86;101875.31;5003948;28;20128;-83
2022/04/27 10:38:02;;;;;;;7.78;3.95;;;;;;;27.44;22.95;101879.81;4988598;28;20160;-85
2022/04/27 10:40:38;;;;;;;47.13;14.65;;;;;;;26.72;24.50;101882.25;5003865;28;20060;-84
2022/04/27 10:43:09;;;;;;;34.17;10.45;;;;;;;26.41;25.36;101883.97;5016001;28;20057;-83
2022/04/27 10:45:45;;;;;;;7.47;3.60;;;;;;;26.98;24.53;101885.25;5018431;28;20420;-84
2022/04/27 10:48:23;;;;;;;10.63;4.53;;;;;;;27.70;24.06;101880.91;4987601;28;20042;-83
2022/04/27 10:50:58;;;;;;;41.90;13.63;;;;;;;28.67;22.73;101881.97;4966527;28;20052;-84
2022/04/27 10:53:30;;;;;;;10.70;4.30;;;;;;;29.16;22.29;101880.47;4968263;28;20046;-85
2022/04/27 10:56:00;;;;;;;7.18;4.45;;;;;;;29.22;22.25;101881.88;4986383;28;20660;-84
2022/04/27 10:58:34;;;;;;;4.25;3.83;;;;;;;29.58;22.06;101876.75;5000238;28;20050;-83
2022/04/27 11:01:01;;;;;;;5.43;3.72;;;;;;;30.11;21.78;101873.94;4989396;28;20778;-85
2022/04/27 11:03:30;;;;;;;6.50;4.07;;;;;;;30.38;20.98;101876.44;5000987;28;20049;-84
2022/04/27 11:06:04;;;;;;;4.40;3.17;;;;;;;29.92;21.50;101875.25;4975002;28;20116;-83
2022/04/27 11:08:34;;;;;;;6.57;4.22;;;;;;;30.00;21.64;101877.41;4984985;28;20053;-84
2022/04/27 11:11:06;;;;;;;5.72;4.00;;;;;;;30.61;21.34;101873.88;5017892;28;20046;-84
2022/04/27 11:13:38;;;;;;;6.35;4.35;;;;;;;31.45;20.60;101865.69;4982772;28;20059;-85
2022/04/27 11:16:13;;;;;;;6.53;4.00;;;;;;;31.63;19.67;101871.53;4970031;28;20073;-85
2022/04/27 11:19:00;;;;;;;9.55;4.65;;;;;;;31.86;19.38;101871.53;4982580;28;20437;-83
2022/04/27 11:21:30;;;;;;;6.93;3.90;;;;;;;32.10;19.83;101871.38;4981416;28;20177;-84
2022/04/27 11:23:59;;;;;;;6.38;4.57;;;;;;;31.61;20.18;101868.03;4967814;28;20049;-84
2022/04/27 11:26:25;;;;;;;6.43;4.05;;;;;;;30.08;21.62;101869.59;4982466;28;20046;-83
2022/04/27 11:28:54;;;;;;;4.97;4.38;;;;;;;27.96;23.49;101873.00;5001892;28;20069;-82
2022/04/27 11:31:23;;;;;;;4.97;3.78;;;;;;;26.99;24.57;101868.19;5000697;28;20858;-83
2022/04/27 11:33:50;;;;;;;4.68;3.80;;;;;;;27.26;24.50;101872.84;4964230;28;20588;-83
2022/04/27 11:36:25;;;;;;;8.60;4.70;;;;;;;27.89;24.15;101864.47;4983040;28;20042;-83
2022/04/27 11:38:53;;;;;;;4.80;4.32;;;;;;;28.66;23.45;101866.75;4999814;28;20160;-83
2022/04/27 11:41:24;;;;;;;5.03;4.07;;;;;;;29.27;22.58;101855.50;4969265;28;20048;-85
2022/04/27 11:43:54;;;;;;;5.68;3.88;;;;;;;29.93;22.18;101859.91;4998471;28;20257;-84
2022/04/27 11:46:26;;;;;;;7.25;4.18;;;;;;;30.77;21.16;101858.22;4987730;28;20124;-85
2022/04/27 11:48:52;;;;;;;4.22;3.75;;;;;;;31.29;20.37;101849.78;4984744;28;20119;-84
2022/04/27 11:51:20;;;;;;;5.97;3.72;;;;;;;31.21;19.94;101850.41;4987674;28;20057;-83
2022/04/27 11:53:49;;;;;;;3.95;3.55;;;;;;;31.17;20.31;101852.50;4985169;28;20081;-84
2022/04/27 11:56:18;;;;;;;4.10;3.42;;;;;;;31.40;19.84;101846.25;4973328;28;20049;-84
2022/04/27 11:58:46;;;;;;;5.38;4.78;;;;;;;31.65;18.69;101848.78;4982115;28;20800;-84
2022/04/27 12:01:24;;;;;;;7.30;4.50;;;;;;;29.89;20.02;101850.31;4988534;28;20034;-84